Time;durP1;ratioP1;P1;durP2;ratioP2;P2;SDS_P1;SDS_P2;PMS_P1;PMS_P2;Temp;Humidity;BMP_temperature;BMP_pressure;BME280_temperature;BME280_humidity;BME280_pressure;Samples;Min_cycle;Max_cycle;Signal;HPM_P1;HPM_P2
2021/01/11 00:00:17;;;;;;;12.27;9.33;;;-1.80;99.90;;;;;;5036318;28;20263;-78
2021/01/11 00:02:43;;;;;;;12.07;9.30;;;-1.90;99.90;;;;;;5032679;28;20195;-78
2021/01/11 00:05:10;;;;;;;14.90;9.73;;;-1.90;99.90;;;;;;5007006;28;20665;-77
2021/01/11 00:07:38;;;;;;;13.37;9.83;;;-1.90;99.90;;;;;;5021290;28;20196;-78
2021/01/11 00:10:04;;;;;;;14.77;10.20;;;-2.00;99.90;;;;;;5016139;28;20204;-78
2021/01/11 00:12:38;;;;;;;14.10;9.93;;;-2.00;99.90;;;;;;5016234;28;21089;-78
2021/01/11 00:15:06;;;;;;;12.90;9.30;;;-1.90;99.90;;;;;;4995530;28;20255;-77
2021/01/11 00:17:32;;;;;;;13.70;9.40;;;-1.90;99.90;;;;;;4996321;28;20170;-78
2021/01/11 00:19:57;;;;;;;14.27;10.43;;;-1.90;99.90;;;;;;4995506;28;20561;-77
2021/01/11 00:22:23;;;;;;;15.23;10.20;;;-2.00;99.90;;;;;;5010464;28;20212;-77
2021/01/11 00:24:49;;;;;;;14.17;10.30;;;-2.00;99.90;;;;;;5016645;28;20183;-78
2021/01/11 00:27:15;;;;;;;15.77;10.23;;;-2.00;99.90;;;;;;5016445;28;20295;-78
2021/01/11 00:29:41;;;;;;;12.07;9.57;;;-2.00;99.90;;;;;;5015948;28;20675;-77
2021/01/11 00:32:07;;;;;;;11.93;8.93;;;-1.90;99.90;;;;;;5016627;28;20183;-78
2021/01/11 00:34:33;;;;;;;14.23;9.63;;;-1.90;99.90;;;;;;5017983;28;20179;-78
2021/01/11 00:36:59;;;;;;;14.10;10.23;;;-1.90;99.90;;;;;;5017562;28;20180;-78
2021/01/11 00:39:26;;;;;;;12.27;9.27;;;-2.00;99.90;;;;;;4998702;28;20248;-78
2021/01/11 00:41:56;;;;;;;13.47;9.83;;;-2.00;99.90;;;;;;5018425;28;20181;-77
2021/01/11 00:44:23;;;;;;;17.13;11.20;;;-2.00;99.90;;;;;;5008127;28;20193;-78
2021/01/11 00:46:48;;;;;;;13.53;10.67;;;-2.00;99.90;;;;;;5026926;28;20233;-78
2021/01/11 00:49:14;;;;;;;14.37;10.80;;;-2.00;99.90;;;;;;5032076;28;20180;-78
2021/01/11 00:51:40;;;;;;;15.37;11.00;;;-2.00;99.90;;;;;;5027550;23;20299;-78
2021/01/11 00:54:05;;;;;;;15.93;10.73;;;-2.00;99.90;;;;;;5026443;28;20222;-78
2021/01/11 00:56:34;;;;;;;16.27;10.93;;;-2.00;99.90;;;;;;5025087;28;20190;-78
2021/01/11 00:59:00;;;;;;;13.70;10.37;;;-2.00;99.90;;;;;;5016392;28;20183;-78
2021/01/11 01:01:25;;;;;;;13.03;10.63;;;-2.00;99.90;;;;;;5026384;28;20184;-78
2021/01/11 01:03:51;;;;;;;17.83;11.53;;;-1.90;99.90;;;;;;5017551;28;20205;-78
2021/01/11 01:06:18;;;;;;;16.37;11.20;;;-1.90;99.90;;;;;;5015981;28;20176;-78
2021/01/11 01:08:44;;;;;;;15.53;11.17;;;-1.90;99.90;;;;;;5016190;28;20234;-78
2021/01/11 01:11:10;;;;;;;16.97;11.80;;;-1.90;99.90;;;;;;5024342;28;20207;-78
2021/01/11 01:13:36;;;;;;;18.97;12.33;;;-1.90;99.90;;;;;;5013948;28;20280;-78
2021/01/11 01:16:04;;;;;;;15.57;11.63;;;-1.90;99.90;;;;;;5015819;28;20234;-77
2021/01/11 01:18:30;;;;;;;17.13;11.57;;;-1.90;99.90;;;;;;5004274;28;20206;-78
2021/01/11 01:20:56;;;;;;;21.17;11.53;;;-1.80;99.90;;;;;;5012638;28;20288;-78
2021/01/11 01:23:22;;;;;;;14.90;10.80;;;-1.80;99.90;;;;;;5022941;28;20227;-77
2021/01/11 01:25:48;;;;;;;13.67;10.90;;;-1.80;99.90;;;;;;5034009;28;20535;-78
2021/01/11 01:28:14;;;;;;;16.67;11.67;;;-1.80;99.90;;;;;;5016514;28;20652;-78
2021/01/11 01:30:40;;;;;;;16.53;10.80;;;-1.80;99.90;;;;;;5030200;28;20250;-78
2021/01/11 01:33:05;;;;;;;18.53;11.97;;;-1.80;99.90;;;;;;5016218;28;20672;-78
2021/01/11 01:35:31;;;;;;;22.33;12.93;;;-1.80;99.90;;;;;;5027180;28;20559;-78
2021/01/11 01:37:58;;;;;;;18.30;11.77;;;-1.90;99.90;;;;;;5032404;28;20550;-78
2021/01/11 01:40:25;;;;;;;21.53;12.63;;;-1.80;99.90;;;;;;5024392;28;20260;-78
2021/01/11 01:42:51;;;;;;;28.97;15.77;;;-1.90;99.90;;;;;;5020215;28;20712;-78
2021/01/11 01:45:18;;;;;;;26.10;13.67;;;-1.90;99.90;;;;;;5034969;28;20180;-78
2021/01/11 01:47:44;;;;;;;42.17;18.60;;;-1.80;99.90;;;;;;5022622;28;20268;-77
2021/01/11 01:50:11;;;;;;;22.93;14.43;;;-1.90;99.90;;;;;;5015106;28;20256;-78
2021/01/11 01:52:38;;;;;;;21.27;14.10;;;-1.90;99.90;;;;;;5029796;28;20211;-77
2021/01/11 01:55:07;;;;;;;39.40;19.83;;;-1.90;99.90;;;;;;5021255;28;20175;-77
2021/01/11 01:57:33;;;;;;;21.23;14.30;;;-1.90;99.90;;;;;;5018764;28;20182;-77
2021/01/11 01:59:59;;;;;;;23.00;14.47;;;-2.00;99.90;;;;;;5018884;28;20196;-78
2021/01/11 02:02:25;;;;;;;21.23;14.37;;;-2.00;99.90;;;;;;5026097;28;20183;-78
2021/01/11 02:04:50;;;;;;;21.90;14.83;;;-2.00;99.90;;;;;;5038831;28;20182;-78
2021/01/11 02:07:27;;;;;;;23.17;14.63;;;-2.00;99.90;;;;;;5023108;28;20649;-78
2021/01/11 02:10:30;;;;;;;23.30;15.70;;;-2.10;99.90;;;;;;5036906;28;20194;-77
2021/01/11 02:13:14;;;;;;;23.63;14.53;;;-2.00;99.90;;;;;;5018519;28;20218;-77
2021/01/11 02:15:52;;;;;;;23.80;14.00;;;-2.10;99.90;;;;;;5018722;28;20171;-78
2021/01/11 02:18:32;;;;;;;26.37;15.43;;;-2.10;99.90;;;;;;5018539;28;20206;-78
2021/01/11 02:21:14;;;;;;;24.77;14.83;;;-2.10;99.90;;;;;;5011409;28;20175;-78
2021/01/11 02:23:51;;;;;;;27.67;15.67;;;-2.20;99.90;;;;;;5022500;28;20195;-77
2021/01/11 02:26:53;;;;;;;26.50;15.73;;;-2.20;99.90;;;;;;5024582;28;20232;-77
2021/01/11 02:29:55;;;;;;;21.80;14.50;;;-2.20;99.90;;;;;;5019042;28;20257;-77
2021/01/11 02:32:24;;;;;;;26.57;17.17;;;-2.20;99.90;;;;;;5003918;28;20194;-77
2021/01/11 02:34:52;;;;;;;23.17;14.53;;;-2.20;99.90;;;;;;5007735;28;20180;-78
2021/01/11 02:37:18;;;;;;;22.80;14.70;;;-2.20;99.90;;;;;;5032360;28;20542;-77
2021/01/11 02:39:44;;;;;;;24.23;15.07;;;-2.20;99.90;;;;;;5036644;28;20175;-78
2021/01/11 02:42:10;;;;;;;20.33;13.70;;;-2.20;99.90;;;;;;5025473;28;20194;-77
2021/01/11 02:44:36;;;;;;;21.47;13.90;;;-2.20;99.90;;;;;;5035969;28;20168;-77
2021/01/11 02:47:02;;;;;;;20.03;13.37;;;-2.20;99.90;;;;;;5024909;28;20650;-77
2021/01/11 02:49:36;;;;;;;22.53;13.87;;;-2.20;99.90;;;;;;5023081;28;20272;-77
2021/01/11 02:52:10;;;;;;;19.67;13.20;;;-2.30;99.90;;;;;;5037215;28;20199;-78
2021/01/11 02:54:43;;;;;;;21.87;13.43;;;-2.30;99.90;;;;;;5037234;28;20209;-78
2021/01/11 02:57:26;;;;;;;22.73;13.17;;;-2.30;99.90;;;;;;5037463;28;20179;-77
2021/01/11 02:59:57;;;;;;;18.97;12.13;;;-2.30;99.90;;;;;;5037428;28;20222;-77
2021/01/11 03:02:27;;;;;;;20.37;13.37;;;-2.30;99.90;;;;;;5036069;28;20590;-77
2021/01/11 03:04:54;;;;;;;18.23;12.83;;;-2.30;99.90;;;;;;5021864;28;20179;-77
2021/01/11 03:07:20;;;;;;;21.57;13.17;;;-2.30;99.90;;;;;;5023207;28;20317;-78
2021/01/11 03:09:47;;;;;;;18.00;12.93;;;-2.40;99.90;;;;;;5025303;28;20207;-78
2021/01/11 03:12:13;;;;;;;19.60;13.43;;;-2.40;99.90;;;;;;5033584;28;20227;-77
2021/01/11 03:14:39;;;;;;;22.80;14.03;;;-2.40;99.90;;;;;;5027297;28;20262;-78
2021/01/11 03:17:05;;;;;;;19.73;13.63;;;-2.40;99.90;;;;;;5033072;28;20179;-77
2021/01/11 03:19:32;;;;;;;22.13;13.27;;;-2.40;99.90;;;;;;5037099;28;20645;-78
2021/01/11 03:21:58;;;;;;;22.63;14.73;;;-2.40;99.90;;;;;;5023062;28;20238;-78
2021/01/11 03:24:25;;;;;;;21.93;14.03;;;-2.40;99.90;;;;;;5036192;28;20198;-77
2021/01/11 03:26:51;;;;;;;22.30;14.60;;;-2.40;99.90;;;;;;5035469;28;20578;-77
2021/01/11 03:29:18;;;;;;;22.93;13.93;;;-2.50;99.90;;;;;;5022573;28;20179;-78
2021/01/11 03:31:45;;;;;;;20.67;13.37;;;-2.50;99.90;;;;;;5036655;28;20205;-78
2021/01/11 03:34:11;;;;;;;20.17;12.47;;;-2.60;99.90;;;;;;5022017;28;20636;-77
2021/01/11 03:36:38;;;;;;;21.93;14.80;;;-2.50;99.90;;;;;;5027780;28;20241;-78
2021/01/11 03:39:06;;;;;;;24.90;15.43;;;-2.50;99.90;;;;;;5030287;28;20172;-78
2021/01/11 03:41:36;;;;;;;20.90;13.60;;;-2.50;99.90;;;;;;5036264;28;20207;-77
2021/01/11 03:44:04;;;;;;;19.40;13.23;;;-2.50;99.90;;;;;;5036138;28;20200;-77
2021/01/11 03:46:31;;;;;;;21.73;14.53;;;-2.50;99.90;;;;;;5007991;28;20173;-77
2021/01/11 03:48:58;;;;;;;21.63;14.53;;;-2.60;99.90;;;;;;5028896;28;20222;-77
2021/01/11 03:51:24;;;;;;;22.33;13.87;;;-2.60;99.90;;;;;;5020309;28;20210;-78
2021/01/11 03:53:50;;;;;;;23.47;14.43;;;-2.70;99.90;;;;;;5025789;28;20678;-78
2021/01/11 03:56:16;;;;;;;24.87;15.00;;;-2.60;99.90;;;;;;5018794;28;20179;-77
2021/01/11 03:58:42;;;;;;;25.93;15.50;;;-2.60;99.90;;;;;;5036208;28;20190;-77
2021/01/11 04:01:08;;;;;;;23.63;15.13;;;-2.70;99.90;;;;;;5025169;28;20187;-77
2021/01/11 04:03:34;;;;;;;23.03;14.23;;;-2.60;99.90;;;;;;5016109;28;20261;-77
2021/01/11 04:06:00;;;;;;;25.17;14.90;;;-2.70;99.90;;;;;;5016120;28;20214;-78
2021/01/11 04:08:27;;;;;;;25.10;14.27;;;-2.70;99.90;;;;;;5015691;28;20183;-77
2021/01/11 04:10:53;;;;;;;23.77;15.20;;;-2.70;99.90;;;;;;5016256;28;20206;-78
2021/01/11 04:13:20;;;;;;;29.13;16.00;;;-2.70;99.90;;;;;;5016127;28;20208;-77
2021/01/11 04:15:46;;;;;;;23.07;15.00;;;-2.60;99.90;;;;;;5035041;28;20175;-77
2021/01/11 04:18:13;;;;;;;25.33;15.53;;;-2.60;99.90;;;;;;5035526;28;20275;-77
2021/01/11 04:20:38;;;;;;;26.77;15.43;;;-2.60;99.90;;;;;;5035480;28;20201;-77
2021/01/11 04:23:05;;;;;;;26.57;16.13;;;-2.70;99.90;;;;;;5035209;28;20239;-77
2021/01/11 04:25:31;;;;;;;25.73;16.50;;;-2.70;99.90;;;;;;5019849;28;20184;-77
2021/01/11 04:27:58;;;;;;;29.57;16.13;;;-2.70;99.90;;;;;;5015722;28;20186;-78
2021/01/11 04:30:24;;;;;;;28.60;16.57;;;-2.70;99.90;;;;;;5015717;28;20618;-77
2021/01/11 04:32:51;;;;;;;30.23;16.20;;;-2.70;99.90;;;;;;5015593;28;20206;-78
2021/01/11 04:35:19;;;;;;;27.47;16.83;;;-2.60;99.90;;;;;;5015858;28;20210;-77
2021/01/11 04:37:45;;;;;;;27.70;16.17;;;-2.60;99.90;;;;;;5014032;28;20263;-77
2021/01/11 04:40:11;;;;;;;26.37;16.63;;;-2.60;99.90;;;;;;5025547;28;20617;-78
2021/01/11 04:42:37;;;;;;;27.70;15.83;;;-2.60;99.90;;;;;;5034804;28;20278;-78
2021/01/11 04:45:03;;;;;;;25.83;16.37;;;-2.60;99.90;;;;;;5034980;28;20205;-77
2021/01/11 04:47:30;;;;;;;33.73;16.80;;;-2.60;99.90;;;;;;5019816;28;20183;-78
2021/01/11 04:49:56;;;;;;;25.80;16.37;;;-2.60;99.90;;;;;;5029064;28;20324;-78
2021/01/11 04:52:24;;;;;;;23.73;14.87;;;-2.60;99.90;;;;;;5029937;28;20231;-78
2021/01/11 04:57:38;;;;;;;27.40;16.00;;;-2.60;99.90;;;;;;5045231;22;20261;-77
2021/01/11 05:00:08;;;;;;;26.57;15.03;;;-2.70;99.90;;;;;;5030291;28;20191;-77
2021/01/11 05:02:43;;;;;;;25.67;15.77;;;-2.70;99.90;;;;;;5007823;28;20203;-77
2021/01/11 05:05:13;;;;;;;27.53;15.53;;;-2.70;99.90;;;;;;5002462;28;20180;-77
2021/01/11 05:07:39;;;;;;;24.03;15.10;;;-2.70;99.90;;;;;;5013907;28;20203;-77
2021/01/11 05:10:06;;;;;;;24.93;15.67;;;-2.70;99.90;;;;;;5011752;28;20265;-77
2021/01/11 05:12:33;;;;;;;26.37;15.43;;;-2.70;99.90;;;;;;5014564;28;20163;-77
2021/01/11 05:15:18;;;;;;;24.80;15.87;;;-2.80;99.90;;;;;;5014704;28;20306;-77
2021/01/11 05:17:45;;;;;;;26.93;16.70;;;-2.80;99.90;;;;;;5016096;28;20177;-77
2021/01/11 05:20:13;;;;;;;26.33;15.60;;;-2.80;99.90;;;;;;5017226;28;20175;-77
2021/01/11 05:22:48;;;;;;;27.43;16.57;;;-2.80;99.90;;;;;;5015190;28;20207;-77
2021/01/11 05:25:19;;;;;;;25.17;16.23;;;-2.80;99.90;;;;;;5013413;28;20193;-77
2021/01/11 05:28:01;;;;;;;26.50;17.13;;;-2.80;99.90;;;;;;5015162;28;20649;-77
2021/01/11 05:30:31;;;;;;;25.30;16.47;;;-2.70;99.90;;;;;;5013373;28;20662;-77
2021/01/11 05:32:57;;;;;;;28.03;16.90;;;-2.70;99.90;;;;;;5014884;28;20175;-79
2021/01/11 05:35:25;;;;;;;25.40;16.47;;;-2.80;99.90;;;;;;5015812;28;20764;-78
2021/01/11 05:37:51;;;;;;;28.90;16.87;;;-2.70;99.90;;;;;;5013375;28;20669;-79
2021/01/11 05:40:20;;;;;;;30.03;17.23;;;-2.70;99.90;;;;;;5016310;28;20179;-77
2021/01/11 05:43:00;;;;;;;27.97;16.80;;;-2.70;99.90;;;;;;5014474;28;20270;-78
2021/01/11 05:45:35;;;;;;;27.87;16.87;;;-2.70;99.90;;;;;;5014807;28;20207;-77
2021/01/11 05:48:10;;;;;;;27.33;16.37;;;-2.80;99.90;;;;;;5015654;28;20658;-79
2021/01/11 05:50:50;;;;;;;28.83;16.13;;;-2.70;99.90;;;;;;5014629;28;20236;-79
2021/01/11 05:53:22;;;;;;;29.27;17.03;;;-2.70;99.90;;;;;;5013685;28;20194;-77
2021/01/11 05:55:49;;;;;;;25.47;16.43;;;-2.60;99.90;;;;;;5015458;28;20213;-77
2021/01/11 05:58:17;;;;;;;30.00;17.83;;;-2.60;99.90;;;;;;5015967;28;20523;-77
2021/01/11 06:00:43;;;;;;;28.90;17.20;;;-2.60;99.90;;;;;;5013141;28;20504;-78
2021/01/11 06:03:10;;;;;;;32.13;18.30;;;-2.70;99.90;;;;;;5014099;28;20175;-77
2021/01/11 06:05:37;;;;;;;27.37;16.10;;;-2.70;99.90;;;;;;5015485;28;20553;-78
2021/01/11 06:08:05;;;;;;;29.23;16.93;;;-2.80;99.90;;;;;;5016036;28;20175;-77
2021/01/11 06:10:32;;;;;;;32.57;19.07;;;-2.80;99.90;;;;;;5014490;28;20207;-77
2021/01/11 06:12:58;;;;;;;34.17;19.90;;;-2.80;99.90;;;;;;5016826;28;20176;-78
2021/01/11 06:15:28;;;;;;;47.17;23.53;;;-2.70;99.90;;;;;;4996054;28;20200;-78
2021/01/11 06:17:58;;;;;;;28.87;15.60;;;-2.70;99.90;;;;;;5014165;28;20168;-78
2021/01/11 06:20:29;;;;;;;27.33;17.30;;;-2.70;99.90;;;;;;5013796;28;20186;-76
2021/01/11 06:22:58;;;;;;;27.27;17.40;;;-2.70;99.90;;;;;;5013681;28;20168;-77
2021/01/11 06:25:23;;;;;;;24.97;15.97;;;-2.70;99.90;;;;;;5014609;28;20199;-77
2021/01/11 06:28:12;;;;;;;26.90;17.60;;;-2.70;99.90;;;;;;5014382;28;20705;-77
2021/01/11 06:30:42;;;;;;;32.40;17.30;;;-2.70;99.90;;;;;;5014325;28;20671;-77
2021/01/11 06:33:11;;;;;;;32.50;18.50;;;-2.70;99.90;;;;;;5021250;22;20263;-78
2021/01/11 06:35:46;;;;;;;28.50;16.47;;;-2.70;99.90;;;;;;5036080;28;20200;-78
2021/01/11 06:38:22;;;;;;;30.87;17.30;;;-2.70;99.90;;;;;;4999957;28;20171;-78
2021/01/11 06:41:09;;;;;;;32.90;16.17;;;-2.70;99.90;;;;;;5017634;28;20175;-78
2021/01/11 06:43:52;;;;;;;28.60;17.23;;;-2.70;99.90;;;;;;5014704;28;20190;-78
2021/01/11 06:46:30;;;;;;;28.23;16.27;;;-2.80;99.90;;;;;;5017580;28;20191;-77
2021/01/11 06:49:03;;;;;;;25.83;16.47;;;-2.80;99.90;;;;;;5018014;28;20206;-78
2021/01/11 06:51:31;;;;;;;25.90;16.27;;;-2.70;99.90;;;;;;5017309;28;20275;-76
2021/01/11 06:54:14;;;;;;;30.23;17.60;;;-2.70;99.90;;;;;;5004156;28;20176;-78
2021/01/11 06:56:42;;;;;;;31.83;17.00;;;-2.70;99.90;;;;;;5001834;28;20197;-77
2021/01/11 06:59:11;;;;;;;31.53;18.60;;;-2.70;99.90;;;;;;5017921;28;20544;-77
2021/01/11 07:01:39;;;;;;;30.20;17.47;;;-2.70;99.90;;;;;;5002713;28;20181;-77
2021/01/11 07:04:08;;;;;;;28.40;17.10;;;-2.70;99.90;;;;;;5017371;28;20202;-77
2021/01/11 07:06:36;;;;;;;29.47;18.57;;;-2.70;99.90;;;;;;5018678;28;20567;-77
2021/01/11 07:09:09;;;;;;;31.70;18.33;;;-2.80;99.90;;;;;;5018081;28;20539;-77
2021/01/11 07:11:46;;;;;;;28.37;16.60;;;-2.80;99.90;;;;;;5001168;28;20218;-78
2021/01/11 07:14:14;;;;;;;31.00;18.10;;;-2.80;99.90;;;;;;5019228;28;20698;-78
2021/01/11 07:16:41;;;;;;;32.00;19.10;;;-2.90;99.90;;;;;;5019142;28;20219;-77
2021/01/11 07:19:07;;;;;;;24.30;15.93;;;-2.90;99.90;;;;;;5019244;28;20171;-78
2021/01/11 07:21:35;;;;;;;30.27;18.67;;;-2.90;99.90;;;;;;5019866;28;20183;-78
2021/01/11 07:24:03;;;;;;;32.10;19.07;;;-2.90;99.90;;;;;;5002118;28;20638;-78
2021/01/11 07:26:29;;;;;;;31.23;17.40;;;-2.90;99.90;;;;;;5001830;28;20282;-78
2021/01/11 07:29:01;;;;;;;31.00;18.30;;;-2.90;99.90;;;;;;5020162;28;20665;-79
2021/01/11 07:31:30;;;;;;;26.67;16.13;;;-2.90;99.90;;;;;;5001133;28;20199;-78
2021/01/11 07:34:01;;;;;;;27.27;17.77;;;-2.90;99.90;;;;;;5018007;28;20209;-78
2021/01/11 07:36:29;;;;;;;27.20;15.77;;;-2.90;99.90;;;;;;5018054;28;20573;-78
2021/01/11 07:39:08;;;;;;;25.60;15.23;;;-2.80;99.90;;;;;;5019368;28;20179;-78
2021/01/11 07:41:40;;;;;;;24.80;15.77;;;-2.80;99.90;;;;;;5019361;28;20171;-77
2021/01/11 07:44:19;;;;;;;29.43;16.97;;;-2.90;99.90;;;;;;5001550;28;20290;-78
2021/01/11 07:47:02;;;;;;;26.67;16.23;;;-2.90;99.90;;;;;;5022007;28;20191;-78
2021/01/11 07:49:31;;;;;;;27.13;16.17;;;-2.90;99.90;;;;;;5026928;28;20648;-78
2021/01/11 07:52:11;;;;;;;32.53;16.90;;;-2.90;99.90;;;;;;5019211;28;20196;-77
2021/01/11 07:54:37;;;;;;;26.80;14.97;;;-2.90;99.90;;;;;;5001292;28;20270;-78
2021/01/11 07:57:11;;;;;;;27.17;15.33;;;-2.90;99.90;;;;;;5019069;28;20203;-78
2021/01/11 07:59:37;;;;;;;29.63;15.50;;;-2.90;99.90;;;;;;5018726;28;20175;-78
2021/01/11 08:02:09;;;;;;;26.80;16.03;;;-2.90;99.90;;;;;;5018233;28;20168;-78
2021/01/11 08:04:39;;;;;;;24.13;14.97;;;-2.90;99.90;;;;;;5018400;28;20180;-77
2021/01/11 08:07:09;;;;;;;24.77;15.50;;;-2.90;99.90;;;;;;5017626;28;20607;-77
2021/01/11 08:09:36;;;;;;;23.80;15.50;;;-2.90;99.90;;;;;;5016721;28;20199;-75
2021/01/11 08:12:17;;;;;;;44.50;23.60;;;-2.90;99.90;;;;;;5030815;28;20206;-77
2021/01/11 08:14:46;;;;;;;32.70;16.60;;;-3.00;99.90;;;;;;5016513;28;20554;-77
2021/01/11 08:17:15;;;;;;;22.07;15.20;;;-3.00;99.90;;;;;;5016528;28;20195;-77
2021/01/11 08:19:42;;;;;;;26.23;16.10;;;-3.00;99.90;;;;;;5016755;28;20187;-79
2021/01/11 08:22:10;;;;;;;25.20;14.73;;;-3.00;99.90;;;;;;5000187;28;20190;-78
2021/01/11 08:24:36;;;;;;;24.77;15.63;;;-2.90;99.90;;;;;;5001567;28;20179;-78
2021/01/11 08:27:11;;;;;;;24.23;15.77;;;-2.90;99.90;;;;;;5018060;28;20201;-78
2021/01/11 08:29:39;;;;;;;50.53;22.47;;;-2.90;99.90;;;;;;5016262;28;20654;-77
2021/01/11 08:32:17;;;;;;;38.97;19.73;;;-2.80;99.90;;;;;;5000148;28;20186;-76
2021/01/11 08:34:43;;;;;;;26.10;15.67;;;-2.80;99.90;;;;;;5016217;28;20563;-77
2021/01/11 08:37:27;;;;;;;25.17;15.13;;;-2.80;99.90;;;;;;4998846;28;20262;-76
2021/01/11 08:40:20;;;;;;;28.20;15.90;;;-2.80;99.90;;;;;;4999129;28;20257;-78
2021/01/11 08:42:47;;;;;;;51.57;26.80;;;-2.80;99.90;;;;;;5016653;28;20254;-77
2021/01/11 08:45:27;;;;;;;28.43;17.50;;;-2.80;99.90;;;;;;5017711;28;20256;-78
2021/01/11 08:48:14;;;;;;;24.43;15.40;;;-2.80;99.90;;;;;;5031181;28;20217;-78
2021/01/11 08:51:01;;;;;;;23.90;15.00;;;-2.80;99.90;;;;;;5017000;28;20201;-77
2021/01/11 08:53:30;;;;;;;31.13;17.20;;;-2.90;99.90;;;;;;5015657;28;20537;-77
2021/01/11 08:56:01;;;;;;;24.80;15.20;;;-2.90;99.90;;;;;;4998326;28;20198;-77
2021/01/11 08:58:31;;;;;;;23.83;14.97;;;-2.90;99.90;;;;;;5020046;28;20194;-78
2021/01/11 09:01:17;;;;;;;23.90;14.83;;;-2.70;99.90;;;;;;5014941;28;20179;-76
2021/01/11 09:03:50;;;;;;;31.97;16.37;;;-2.70;99.90;;;;;;5006384;28;20175;-77
2021/01/11 09:06:38;;;;;;;23.90;14.87;;;-2.70;99.90;;;;;;5016662;28;20199;-78
2021/01/11 09:09:18;;;;;;;24.63;15.70;;;-2.70;99.90;;;;;;4999827;28;20178;-77
2021/01/11 09:11:47;;;;;;;21.00;14.03;;;-2.70;99.90;;;;;;5015697;28;20222;-77
2021/01/11 09:14:18;;;;;;;24.13;14.70;;;-2.70;99.90;;;;;;4998043;28;20175;-79
2021/01/11 09:16:47;;;;;;;25.90;15.93;;;-2.70;99.90;;;;;;5011130;28;20577;-80
2021/01/11 09:19:18;;;;;;;27.33;16.33;;;-2.70;99.90;;;;;;4999701;28;20202;-78
2021/01/11 09:22:06;;;;;;;25.83;15.13;;;-2.60;99.90;;;;;;5017512;28;20185;-78
2021/01/11 09:24:35;;;;;;;30.17;16.00;;;-2.60;99.90;;;;;;4999170;28;20654;-78
2021/01/11 09:27:00;;;;;;;26.80;15.87;;;-2.70;99.90;;;;;;5017405;28;20237;-77
2021/01/11 09:29:26;;;;;;;25.93;16.43;;;-2.60;99.90;;;;;;5015179;28;20199;-77
2021/01/11 09:31:52;;;;;;;26.53;16.20;;;-2.60;99.90;;;;;;5015502;28;20687;-76
2021/01/11 09:34:19;;;;;;;27.30;16.10;;;-2.50;99.90;;;;;;5014828;28;20194;-78
2021/01/11 09:36:45;;;;;;;27.73;15.47;;;-2.50;99.90;;;;;;5015588;28;20195;-77
2021/01/11 09:39:13;;;;;;;28.90;16.47;;;-2.40;99.90;;;;;;5015544;28;20184;-77
2021/01/11 09:41:41;;;;;;;24.20;15.63;;;-2.40;99.90;;;;;;5015372;28;20206;-78
2021/01/11 09:44:07;;;;;;;27.40;16.93;;;-2.40;99.90;;;;;;4997786;28;20214;-77
2021/01/11 09:46:42;;;;;;;25.73;16.00;;;-2.40;99.90;;;;;;5015130;28;20207;-77
2021/01/11 09:49:08;;;;;;;24.33;15.73;;;-2.40;99.90;;;;;;5014913;28;20184;-77
2021/01/11 09:51:35;;;;;;;26.00;16.17;;;-2.40;99.90;;;;;;5014443;28;20203;-77
2021/01/11 09:54:00;;;;;;;24.80;15.33;;;-2.40;99.90;;;;;;4997460;28;20177;-77
2021/01/11 09:56:26;;;;;;;25.80;15.30;;;-2.40;99.90;;;;;;5014959;28;20237;-78
2021/01/11 09:58:53;;;;;;;24.73;15.50;;;-2.40;99.90;;;;;;5016363;28;20631;-78
2021/01/11 10:01:19;;;;;;;23.83;15.63;;;-2.30;99.90;;;;;;4998144;28;20224;-77
2021/01/11 10:03:46;;;;;;;25.73;14.63;;;-2.30;99.90;;;;;;5014829;28;20203;-76
2021/01/11 10:06:12;;;;;;;22.30;15.57;;;-2.30;99.90;;;;;;5014983;28;20214;-77
2021/01/11 10:08:37;;;;;;;22.90;15.30;;;-2.20;99.90;;;;;;5014607;28;20177;-77
2021/01/11 10:11:12;;;;;;;30.53;16.37;;;-2.10;99.90;;;;;;4997343;28;20192;-76
2021/01/11 10:13:37;;;;;;;27.60;15.97;;;-2.20;99.90;;;;;;5000214;28;20191;-77
2021/01/11 10:16:04;;;;;;;29.93;16.83;;;-2.20;99.90;;;;;;5024406;28;20210;-79
2021/01/11 10:18:29;;;;;;;24.70;16.43;;;-2.20;99.90;;;;;;5022457;28;20171;-77
2021/01/11 10:20:55;;;;;;;25.60;16.93;;;-2.10;99.90;;;;;;5001312;28;20176;-78
2021/01/11 10:23:21;;;;;;;28.87;17.27;;;-2.10;99.90;;;;;;5018866;28;20638;-78
2021/01/11 10:25:47;;;;;;;29.17;17.23;;;-1.90;99.90;;;;;;5018196;28;20222;-76
2021/01/11 10:28:13;;;;;;;25.33;16.43;;;-2.00;99.90;;;;;;5017980;28;20725;-76
2021/01/11 10:30:39;;;;;;;28.03;16.20;;;-2.00;99.90;;;;;;5000511;28;20187;-78
2021/01/11 10:33:04;;;;;;;32.20;17.93;;;-1.90;99.90;;;;;;5018879;28;20246;-77
2021/01/11 10:35:32;;;;;;;27.73;16.60;;;-1.90;99.90;;;;;;5019049;28;20758;-78
2021/01/11 10:37:58;;;;;;;28.57;16.37;;;-1.80;99.90;;;;;;5001022;28;20164;-78
2021/01/11 10:40:24;;;;;;;26.83;16.43;;;-1.80;99.90;;;;;;5001202;28;20656;-78
2021/01/11 10:42:50;;;;;;;30.10;18.10;;;-2.10;99.90;;;;;;5001829;28;20171;-78
2021/01/11 10:45:16;;;;;;;27.10;16.37;;;-2.10;99.90;;;;;;5018031;28;20648;-77
2021/01/11 10:47:42;;;;;;;33.67;17.67;;;-2.10;99.90;;;;;;5017643;28;20183;-76
2021/01/11 10:50:09;;;;;;;25.60;15.83;;;-2.10;99.90;;;;;;5017030;28;20299;-77
2021/01/11 10:52:34;;;;;;;23.90;15.50;;;-2.00;99.90;;;;;;5019999;28;20203;-76
2021/01/11 10:55:00;;;;;;;28.40;16.63;;;-2.00;99.90;;;;;;5017619;28;20171;-76
2021/01/11 10:57:26;;;;;;;29.57;17.23;;;-2.00;99.90;;;;;;5037317;23;20226;-77
2021/01/11 10:59:52;;;;;;;27.10;17.23;;;-2.00;99.90;;;;;;5049587;28;20176;-76
2021/01/11 11:02:18;;;;;;;28.53;17.03;;;-2.00;99.90;;;;;;5034380;28;20647;-76
2021/01/11 11:04:45;;;;;;;26.90;16.57;;;-2.00;99.90;;;;;;5035381;28;20188;-76
2021/01/11 11:07:12;;;;;;;26.63;16.53;;;-1.90;99.90;;;;;;5030788;28;20197;-76
2021/01/11 11:09:37;;;;;;;32.17;16.73;;;-1.90;99.90;;;;;;5036019;28;20691;-76
2021/01/11 11:12:03;;;;;;;26.03;17.27;;;-1.80;99.90;;;;;;5032105;28;20203;-76
2021/01/11 11:14:29;;;;;;;27.23;15.90;;;-1.80;99.90;;;;;;4997953;28;20274;-76
2021/01/11 11:16:55;;;;;;;27.67;16.80;;;-1.90;99.90;;;;;;5015194;28;20200;-76
2021/01/11 11:19:20;;;;;;;31.97;17.27;;;-1.90;99.90;;;;;;5014905;28;20160;-77
2021/01/11 11:21:47;;;;;;;27.47;17.50;;;-1.80;99.90;;;;;;5015889;28;20653;-77
2021/01/11 11:24:13;;;;;;;27.50;16.60;;;-1.70;99.90;;;;;;5009516;28;20675;-76
2021/01/11 11:26:38;;;;;;;28.47;16.93;;;-1.60;99.90;;;;;;5015505;28;20200;-77
2021/01/11 11:29:04;;;;;;;25.50;16.77;;;-1.60;99.90;;;;;;5013594;28;20657;-77
2021/01/11 11:31:33;;;;;;;26.20;16.47;;;-1.60;99.90;;;;;;5015008;28;20212;-77
2021/01/11 11:33:59;;;;;;;26.83;16.93;;;-1.50;99.90;;;;;;5011357;28;20178;-76
2021/01/11 11:36:25;;;;;;;27.43;17.27;;;-1.60;99.90;;;;;;5005221;28;20210;-76
2021/01/11 11:38:51;;;;;;;26.67;16.60;;;-1.50;99.90;;;;;;5010126;28;20661;-76
2021/01/11 11:41:21;;;;;;;26.47;16.53;;;-1.50;99.90;;;;;;5012484;28;20461;-76
2021/01/11 11:43:47;;;;;;;29.50;17.13;;;-1.50;99.90;;;;;;5000236;28;20202;-76
2021/01/11 11:46:14;;;;;;;29.00;17.40;;;-1.60;99.90;;;;;;5009137;28;20196;-76
2021/01/11 11:48:39;;;;;;;29.63;17.13;;;-1.70;99.90;;;;;;5017870;28;20166;-77
2021/01/11 11:51:06;;;;;;;28.87;17.07;;;-1.70;99.90;;;;;;5002548;28;20237;-78
2021/01/11 11:53:32;;;;;;;29.83;18.37;;;-1.70;99.90;;;;;;5007694;28;20186;-77
2021/01/11 11:55:57;;;;;;;32.37;18.93;;;-1.60;99.90;;;;;;5007103;28;20198;-78
2021/01/11 11:58:24;;;;;;;32.63;17.77;;;-1.60;99.90;;;;;;5008240;28;20214;-77
2021/01/11 12:00:50;;;;;;;33.57;18.30;;;-1.50;99.90;;;;;;5014212;28;20236;-77
2021/01/11 12:03:16;;;;;;;34.23;18.93;;;-1.50;99.90;;;;;;5004790;28;20188;-77
2021/01/11 12:05:41;;;;;;;32.10;19.80;;;-1.50;99.90;;;;;;5013124;28;20258;-76
2021/01/11 12:08:08;;;;;;;35.53;18.77;;;-1.50;99.90;;;;;;5008014;28;20181;-77
2021/01/11 12:10:34;;;;;;;29.03;18.00;;;-1.50;99.90;;;;;;5012281;28;20205;-77
2021/01/11 12:12:59;;;;;;;34.27;19.77;;;-1.50;99.90;;;;;;5006068;28;20189;-78
2021/01/11 12:15:25;;;;;;;35.10;18.87;;;-1.40;99.90;;;;;;5007302;28;20177;-77
2021/01/11 12:17:51;;;;;;;32.30;18.23;;;-1.40;99.90;;;;;;5002747;28;20200;-76
2021/01/11 12:20:17;;;;;;;32.10;18.43;;;-1.40;99.90;;;;;;5012436;28;20198;-75
2021/01/11 12:22:43;;;;;;;31.70;17.87;;;-1.40;99.90;;;;;;5005348;28;20635;-77
2021/01/11 12:25:09;;;;;;;33.43;19.30;;;-1.40;99.90;;;;;;5007936;28;20187;-76
2021/01/11 12:27:35;;;;;;;30.40;18.00;;;-1.30;99.90;;;;;;5006391;28;20237;-77
2021/01/11 12:30:02;;;;;;;29.23;18.13;;;-1.20;99.90;;;;;;5005716;28;20560;-78
2021/01/11 12:32:28;;;;;;;29.63;17.90;;;-1.20;99.90;;;;;;5007572;28;20264;-76
2021/01/11 12:34:54;;;;;;;31.70;17.57;;;-1.20;99.90;;;;;;5006745;28;20178;-78
2021/01/11 12:37:20;;;;;;;33.90;19.03;;;-1.10;99.90;;;;;;5008332;28;20266;-77
2021/01/11 12:39:46;;;;;;;31.13;18.33;;;-1.20;99.90;;;;;;5005381;28;20172;-78